sensor_id;sensor_type;location;lat;lon;timestamp;pressure;altitude;pressure_sealevel;temperature;humidity
3142;BME280;1581;51.568;6.998;2022-12-31T00:01:35;99739.31;;;13.56;100.00
3142;BME280;1581;51.568;6.998;2022-12-31T00:04:03;99749.44;;;13.77;100.00
3142;BME280;1581;51.568;6.998;2022-12-31T00:06:33;99736.28;;;13.64;100.00
3142;BME280;1581;51.568;6.998;2022-12-31T00:09:04;99741.53;;;13.71;100.00
3142;BME280;1581;51.568;6.998;2022-12-31T00:11:33;99738.25;;;13.80;100.00
3142;BME280;1581;51.568;6.998;2022-12-31T00:14:06;99741.84;;;13.85;100.00
3142;BME280;1581;51.568;6.998;2022-12-31T00:16:40;99736.94;;;13.82;100.00
3142;BME280;1581;51.568;6.998;2022-12-31T00:19:10;99751.03;;;13.78;100.00
3142;BME280;1581;51.568;6.998;2022-12-31T00:21:38;99747.91;;;13.70;100.00
3142;BME280;1581;51.568;6.998;2022-12-31T00:24:07;99754.44;;;13.96;100.00
3142;BME280;1581;51.568;6.998;2022-12-31T00:26:35;99746.97;;;13.75;100.00
3142;BME280;1581;51.568;6.998;2022-12-31T00:29:04;99752.78;;;13.61;100.00
3142;BME280;1581;51.568;6.998;2022-12-31T00:31:35;99742.31;;;13.60;100.00
3142;BME280;1581;51.568;6.998;2022-12-31T00:34:04;99739.75;;;13.65;100.00
3142;BME280;1581;51.568;6.998;2022-12-31T00:36:35;99734.66;;;13.63;100.00
3142;BME280;1581;51.568;6.998;2022-12-31T00:39:05;99730.34;;;13.62;100.00
3142;BME280;1581;51.568;6.998;2022-12-31T00:41:35;99727.66;;;13.85;100.00
3142;BME280;1581;51.568;6.998;2022-12-31T00:44:04;99724.19;;;13.62;100.00
3142;BME280;1581;51.568;6.998;2022-12-31T00:46:32;99723.44;;;13.55;100.00
3142;BME280;1581;51.568;6.998;2022-12-31T00:48:59;99712.28;;;13.58;100.00
3142;BME280;1581;51.568;6.998;2022-12-31T00:51:27;99714.03;;;13.52;100.00
3142;BME280;1581;51.568;6.998;2022-12-31T00:53:56;99706.59;;;13.54;100.00
3142;BME280;1581;51.568;6.998;2022-12-31T00:56:27;99702.03;;;13.55;100.00
3142;BME280;1581;51.568;6.998;2022-12-31T00:58:55;99708.22;;;13.55;100.00
3142;BME280;1581;51.568;6.998;2022-12-31T01:01:27;99686.94;;;13.72;100.00
3142;BME280;1581;51.568;6.998;2022-12-31T01:04:00;99695.06;;;13.76;100.00
3142;BME280;1581;51.568;6.998;2022-12-31T01:06:28;99690.75;;;13.64;100.00
3142;BME280;1581;51.568;6.998;2022-12-31T01:08:56;99682.94;;;13.85;100.00
3142;BME280;1581;51.568;6.998;2022-12-31T01:11:24;99680.16;;;13.80;100.00
3142;BME280;1581;51.568;6.998;2022-12-31T01:13:57;99679.22;;;13.64;100.00
3142;BME280;1581;51.568;6.998;2022-12-31T01:16:31;99678.19;;;13.53;100.00
3142;BME280;1581;51.568;6.998;2022-12-31T01:19:03;99676.44;;;13.81;100.00
3142;BME280;1581;51.568;6.998;2022-12-31T01:21:32;99676.28;;;13.99;100.00
3142;BME280;1581;51.568;6.998;2022-12-31T01:24:00;99676.63;;;14.14;100.00
3142;BME280;1581;51.568;6.998;2022-12-31T01:26:28;99682.22;;;14.13;100.00
3142;BME280;1581;51.568;6.998;2022-12-31T01:28:55;99664.03;;;14.03;100.00
3142;BME280;1581;51.568;6.998;2022-12-31T01:31:23;99663.59;;;13.83;100.00
3142;BME280;1581;51.568;6.998;2022-12-31T01:33:53;99670.81;;;14.17;100.00
3142;BME280;1581;51.568;6.998;2022-12-31T01:36:23;99665.69;;;13.93;100.00
3142;BME280;1581;51.568;6.998;2022-12-31T01:38:51;99664.19;;;13.97;100.00
3142;BME280;1581;51.568;6.998;2022-12-31T01:41:22;99658.72;;;13.92;100.00
3142;BME280;1581;51.568;6.998;2022-12-31T01:43:52;99658.47;;;13.93;100.00
3142;BME280;1581;51.568;6.998;2022-12-31T01:46:31;99663.25;;;14.03;100.00
3142;BME280;1581;51.568;6.998;2022-12-31T01:49:05;99659.19;;;14.00;100.00
3142;BME280;1581;51.568;6.998;2022-12-31T01:51:37;99658.47;;;14.05;100.00
3142;BME280;1581;51.568;6.998;2022-12-31T01:54:08;99641.13;;;13.96;100.00
3142;BME280;1581;51.568;6.998;2022-12-31T01:56:39;99646.19;;;14.09;100.00
3142;BME280;1581;51.568;6.998;2022-12-31T01:59:09;99642.03;;;14.13;100.00
3142;BME280;1581;51.568;6.998;2022-12-31T02:01:39;99646.91;;;14.04;100.00
3142;BME280;1581;51.568;6.998;2022-12-31T02:04:10;99649.69;;;14.21;100.00
3142;BME280;1581;51.568;6.998;2022-12-31T02:06:43;99667.06;;;14.18;100.00
3142;BME280;1581;51.568;6.998;2022-12-31T02:09:13;99657.75;;;14.09;100.00
3142;BME280;1581;51.568;6.998;2022-12-31T02:11:41;99666.97;;;14.02;100.00
3142;BME280;1581;51.568;6.998;2022-12-31T02:14:11;99663.22;;;14.14;100.00
3142;BME280;1581;51.568;6.998;2022-12-31T02:16:50;99655.88;;;14.21;100.00
3142;BME280;1581;51.568;6.998;2022-12-31T02:23:02;99659.13;;;14.23;100.00
3142;BME280;1581;51.568;6.998;2022-12-31T02:25:50;99644.47;;;14.26;100.00
3142;BME280;1581;51.568;6.998;2022-12-31T02:28:41;99618.19;;;14.39;100.00
3142;BME280;1581;51.568;6.998;2022-12-31T02:31:15;99666.03;;;14.47;100.00
3142;BME280;1581;51.568;6.998;2022-12-31T02:33:51;99644.72;;;14.52;100.00
3142;BME280;1581;51.568;6.998;2022-12-31T02:36:22;99645.19;;;14.49;100.00
3142;BME280;1581;51.568;6.998;2022-12-31T02:38:51;99648.97;;;14.53;100.00
3142;BME280;1581;51.568;6.998;2022-12-31T02:41:19;99652.94;;;14.62;100.00
3142;BME280;1581;51.568;6.998;2022-12-31T02:44:01;99653.19;;;14.77;100.00
3142;BME280;1581;51.568;6.998;2022-12-31T02:46:35;99659.72;;;14.81;100.00
3142;BME280;1581;51.568;6.998;2022-12-31T02:49:15;99647.56;;;14.78;100.00
3142;BME280;1581;51.568;6.998;2022-12-31T02:51:50;99645.00;;;14.83;100.00
3142;BME280;1581;51.568;6.998;2022-12-31T02:54:29;99642.97;;;14.90;100.00
3142;BME280;1581;51.568;6.998;2022-12-31T02:57:07;99655.16;;;14.98;100.00
3142;BME280;1581;51.568;6.998;2022-12-31T02:59:40;99639.56;;;15.11;100.00
3142;BME280;1581;51.568;6.998;2022-12-31T03:02:33;99652.50;;;15.14;100.00
3142;BME280;1581;51.568;6.998;2022-12-31T03:05:02;99649.03;;;15.30;100.00
3142;BME280;1581;51.568;6.998;2022-12-31T03:07:31;99654.16;;;15.32;100.00
3142;BME280;1581;51.568;6.998;2022-12-31T03:09:59;99679.38;;;15.31;100.00
3142;BME280;1581;51.568;6.998;2022-12-31T03:12:30;99688.81;;;15.33;100.00
3142;BME280;1581;51.568;6.998;2022-12-31T03:15:16;99697.81;;;15.44;100.00
3142;BME280;1581;51.568;6.998;2022-12-31T03:17:55;99700.34;;;15.50;100.00
3142;BME280;1581;51.568;6.998;2022-12-31T03:20:28;99693.34;;;15.33;100.00
3142;BME280;1581;51.568;6.998;2022-12-31T03:23:20;99716.78;;;15.37;100.00
3142;BME280;1581;51.568;6.998;2022-12-31T03:25:48;99705.38;;;15.47;100.00
3142;BME280;1581;51.568;6.998;2022-12-31T03:28:17;99711.44;;;15.37;100.00
3142;BME280;1581;51.568;6.998;2022-12-31T03:30:47;99713.03;;;15.38;100.00
3142;BME280;1581;51.568;6.998;2022-12-31T03:33:17;99712.75;;;15.23;100.00
3142;BME280;1581;51.568;6.998;2022-12-31T03:35:47;99716.84;;;15.26;100.00
3142;BME280;1581;51.568;6.998;2022-12-31T03:38:16;99694.78;;;15.24;100.00
3142;BME280;1581;51.568;6.998;2022-12-31T03:40:56;99702.13;;;15.28;100.00
3142;BME280;1581;51.568;6.998;2022-12-31T03:43:27;99696.91;;;15.22;100.00
3142;BME280;1581;51.568;6.998;2022-12-31T03:45:55;99692.34;;;15.22;100.00
3142;BME280;1581;51.568;6.998;2022-12-31T03:48:26;99702.47;;;15.32;100.00
3142;BME280;1581;51.568;6.998;2022-12-31T03:50:54;99706.22;;;15.47;100.00
3142;BME280;1581;51.568;6.998;2022-12-31T03:53:22;99717.19;;;15.29;100.00
3142;BME280;1581;51.568;6.998;2022-12-31T03:55:51;99714.75;;;15.44;100.00
3142;BME280;1581;51.568;6.998;2022-12-31T03:58:18;99731.91;;;15.43;100.00
3142;BME280;1581;51.568;6.998;2022-12-31T04:00:46;99744.13;;;15.23;100.00
3142;BME280;1581;51.568;6.998;2022-12-31T04:03:13;99750.22;;;15.02;100.00
3142;BME280;1581;51.568;6.998;2022-12-31T04:05:42;99732.13;;;14.81;100.00
3142;BME280;1581;51.568;6.998;2022-12-31T04:08:21;99750.97;;;14.86;100.00
3142;BME280;1581;51.568;6.998;2022-12-31T04:10:48;99730.50;;;14.80;100.00
3142;BME280;1581;51.568;6.998;2022-12-31T04:13:16;99732.19;;;14.58;100.00
3142;BME280;1581;51.568;6.998;2022-12-31T04:15:43;99714.78;;;14.72;100.00
3142;BME280;1581;51.568;6.998;2022-12-31T04:18:11;99707.63;;;14.77;100.00
3142;BME280;1581;51.568;6.998;2022-12-31T04:20:38;99711.00;;;14.57;100.00
3142;BME280;1581;51.568;6.998;2022-12-31T04:23:07;99702.78;;;14.63;100.00
3142;BME280;1581;51.568;6.998;2022-12-31T04:25:35;99704.34;;;14.87;100.00
3142;BME280;1581;51.568;6.998;2022-12-31T04:28:03;99700.81;;;14.70;100.00
3142;BME280;1581;51.568;6.998;2022-12-31T04:30:30;99696.69;;;14.79;100.00
3142;BME280;1581;51.568;6.998;2022-12-31T04:32:58;99693.94;;;14.90;100.00
3142;BME280;1581;51.568;6.998;2022-12-31T04:35:25;99704.44;;;14.92;100.00
3142;BME280;1581;51.568;6.998;2022-12-31T04:37:52;99712.22;;;14.93;100.00
3142;BME280;1581;51.568;6.998;2022-12-31T04:40:21;99715.16;;;14.92;100.00
3142;BME280;1581;51.568;6.998;2022-12-31T04:42:49;99706.56;;;15.06;100.00
3142;BME280;1581;51.568;6.998;2022-12-31T04:45:17;99720.78;;;15.07;100.00
3142;BME280;1581;51.568;6.998;2022-12-31T04:47:44;99712.09;;;15.16;100.00
3142;BME280;1581;51.568;6.998;2022-12-31T04:50:12;99722.22;;;15.26;100.00
3142;BME280;1581;51.568;6.998;2022-12-31T04:52:44;99723.38;;;15.30;100.00
3142;BME280;1581;51.568;6.998;2022-12-31T04:55:15;99713.69;;;15.29;100.00
3142;BME280;1581;51.568;6.998;2022-12-31T04:57:44;99715.66;;;15.33;100.00
3142;BME280;1581;51.568;6.998;2022-12-31T05:00:12;99727.34;;;15.44;100.00
3142;BME280;1581;51.568;6.998;2022-12-31T05:02:40;99725.81;;;15.48;100.00
3142;BME280;1581;51.568;6.998;2022-12-31T05:05:08;99703.84;;;15.51;100.00
3142;BME280;1581;51.568;6.998;2022-12-31T05:07:35;99689.28;;;15.47;100.00
3142;BME280;1581;51.568;6.998;2022-12-31T05:10:04;99694.47;;;15.69;100.00
3142;BME280;1581;51.568;6.998;2022-12-31T05:12:33;99698.06;;;15.58;100.00
3142;BME280;1581;51.568;6.998;2022-12-31T05:15:02;99689.84;;;15.65;100.00
3142;BME280;1581;51.568;6.998;2022-12-31T05:17:30;99698.47;;;15.67;100.00
3142;BME280;1581;51.568;6.998;2022-12-31T05:19:57;99712.84;;;15.77;100.00
3142;BME280;1581;51.568;6.998;2022-12-31T05:22:25;99713.72;;;15.83;100.00
3142;BME280;1581;51.568;6.998;2022-12-31T05:24:56;99711.63;;;15.85;100.00
3142;BME280;1581;51.568;6.998;2022-12-31T05:27:25;99715.19;;;15.90;100.00
3142;BME280;1581;51.568;6.998;2022-12-31T05:29:53;99722.19;;;15.91;100.00
3142;BME280;1581;51.568;6.998;2022-12-31T05:32:22;99704.19;;;15.92;100.00
3142;BME280;1581;51.568;6.998;2022-12-31T05:34:49;99723.53;;;16.10;100.00
3142;BME280;1581;51.568;6.998;2022-12-31T05:37:18;99731.34;;;16.12;100.00
3142;BME280;1581;51.568;6.998;2022-12-31T05:39:46;99712.66;;;16.00;100.00
3142;BME280;1581;51.568;6.998;2022-12-31T05:42:13;99742.09;;;16.12;100.00
3142;BME280;1581;51.568;6.998;2022-12-31T05:44:41;99731.09;;;16.13;100.00
3142;BME280;1581;51.568;6.998;2022-12-31T05:47:08;99740.47;;;16.11;100.00
3142;BME280;1581;51.568;6.998;2022-12-31T05:49:37;99746.25;;;16.19;100.00
3142;BME280;1581;51.568;6.998;2022-12-31T05:52:04;99733.38;;;16.21;100.00
3142;BME280;1581;51.568;6.998;2022-12-31T05:54:32;99732.94;;;16.29;100.00
3142;BME280;1581;51.568;6.998;2022-12-31T05:57:01;99749.25;;;16.23;100.00
3142;BME280;1581;51.568;6.998;2022-12-31T05:59:29;99750.91;;;16.29;100.00
3142;BME280;1581;51.568;6.998;2022-12-31T06:01:56;99760.72;;;16.35;100.00
3142;BME280;1581;51.568;6.998;2022-12-31T06:04:24;99767.97;;;16.34;100.00
3142;BME280;1581;51.568;6.998;2022-12-31T06:06:53;99766.41;;;16.38;100.00
3142;BME280;1581;51.568;6.998;2022-12-31T06:09:21;99781.50;;;16.39;100.00
3142;BME280;1581;51.568;6.998;2022-12-31T06:11:49;99778.28;;;16.42;100.00
3142;BME280;1581;51.568;6.998;2022-12-31T06:14:16;99795.41;;;16.36;100.00
3142;BME280;1581;51.568;6.998;2022-12-31T06:16:44;99794.19;;;16.43;100.00
3142;BME280;1581;51.568;6.998;2022-12-31T06:19:12;99798.72;;;16.43;100.00
3142;BME280;1581;51.568;6.998;2022-12-31T06:21:39;99791.41;;;16.38;100.00
3142;BME280;1581;51.568;6.998;2022-12-31T06:24:09;99799.75;;;16.37;100.00
3142;BME280;1581;51.568;6.998;2022-12-31T06:26:36;99807.19;;;16.51;100.00
3142;BME280;1581;51.568;6.998;2022-12-31T06:29:04;99800.81;;;16.57;100.00
3142;BME280;1581;51.568;6.998;2022-12-31T06:31:32;99806.44;;;16.56;100.00
3142;BME280;1581;51.568;6.998;2022-12-31T06:34:00;99803.25;;;16.59;100.00
3142;BME280;1581;51.568;6.998;2022-12-31T06:36:28;99817.63;;;16.48;100.00
3142;BME280;1581;51.568;6.998;2022-12-31T06:38:56;99829.84;;;16.55;100.00
3142;BME280;1581;51.568;6.998;2022-12-31T06:41:25;99817.28;;;16.61;100.00
3142;BME280;1581;51.568;6.998;2022-12-31T06:43:53;99833.22;;;16.67;100.00
3142;BME280;1581;51.568;6.998;2022-12-31T06:46:21;99819.63;;;16.57;100.00
3142;BME280;1581;51.568;6.998;2022-12-31T06:48:48;99828.09;;;16.66;100.00
3142;BME280;1581;51.568;6.998;2022-12-31T06:51:18;99841.84;;;16.69;100.00
3142;BME280;1581;51.568;6.998;2022-12-31T06:53:48;99828.84;;;16.61;100.00
3142;BME280;1581;51.568;6.998;2022-12-31T06:56:19;99842.13;;;16.68;100.00
3142;BME280;1581;51.568;6.998;2022-12-31T06:58:49;99830.28;;;16.69;100.00
3142;BME280;1581;51.568;6.998;2022-12-31T07:01:48;99843.38;;;16.82;100.00
3142;BME280;1581;51.568;6.998;2022-12-31T07:07:48;99850.94;;;16.85;100.00
3142;BME280;1581;51.568;6.998;2022-12-31T07:10:27;99858.25;;;16.89;100.00
3142;BME280;1581;51.568;6.998;2022-12-31T07:13:39;99871.00;;;16.77;100.00
3142;BME280;1581;51.568;6.998;2022-12-31T07:16:51;99852.88;;;16.89;100.00
3142;BME280;1581;51.568;6.998;2022-12-31T07:19:32;99869.63;;;16.75;100.00
3142;BME280;1581;51.568;6.998;2022-12-31T07:22:03;99860.91;;;16.84;100.00
3142;BME280;1581;51.568;6.998;2022-12-31T07:24:31;99861.25;;;16.71;100.00
3142;BME280;1581;51.568;6.998;2022-12-31T07:27:31;99861.56;;;16.75;100.00
3142;BME280;1581;51.568;6.998;2022-12-31T07:30:06;99892.31;;;17.00;100.00
3142;BME280;1581;51.568;6.998;2022-12-31T07:33:06;99877.00;;;17.01;100.00
3142;BME280;1581;51.568;6.998;2022-12-31T07:35:47;99873.84;;;16.87;100.00
3142;BME280;1581;51.568;6.998;2022-12-31T07:38:24;99895.06;;;16.84;100.00
3142;BME280;1581;51.568;6.998;2022-12-31T07:41:06;99881.22;;;16.97;100.00
3142;BME280;1581;51.568;6.998;2022-12-31T07:43:47;99892.19;;;16.90;100.00
3142;BME280;1581;51.568;6.998;2022-12-31T07:46:25;99888.28;;;16.81;100.00
3142;BME280;1581;51.568;6.998;2022-12-31T07:48:57;99876.41;;;16.77;100.00
3142;BME280;1581;51.568;6.998;2022-12-31T07:51:26;99876.34;;;16.94;100.00
3142;BME280;1581;51.568;6.998;2022-12-31T07:53:54;99881.38;;;16.85;100.00
3142;BME280;1581;51.568;6.998;2022-12-31T07:56:21;99896.44;;;16.86;100.00
3142;BME280;1581;51.568;6.998;2022-12-31T07:59:07;99892.22;;;16.74;100.00
3142;BME280;1581;51.568;6.998;2022-12-31T08:01:46;99885.69;;;16.86;100.00
3142;BME280;1581;51.568;6.998;2022-12-31T08:04:25;99872.66;;;16.78;100.00
3142;BME280;1581;51.568;6.998;2022-12-31T08:07:02;99882.03;;;16.76;100.00
3142;BME280;1581;51.568;6.998;2022-12-31T08:09:41;99892.88;;;16.81;100.00
3142;BME280;1581;51.568;6.998;2022-12-31T08:12:11;99889.19;;;16.87;100.00
3142;BME280;1581;51.568;6.998;2022-12-31T08:14:44;99910.41;;;16.83;100.00
3142;BME280;1581;51.568;6.998;2022-12-31T08:17:15;99904.84;;;16.90;100.00
3142;BME280;1581;51.568;6.998;2022-12-31T08:19:45;99897.19;;;16.82;100.00
3142;BME280;1581;51.568;6.998;2022-12-31T08:22:38;99893.28;;;16.73;100.00
3142;BME280;1581;51.568;6.998;2022-12-31T08:25:18;99912.25;;;16.83;100.00
3142;BME280;1581;51.568;6.998;2022-12-31T08:27:59;99905.41;;;16.92;100.00
3142;BME280;1581;51.568;6.998;2022-12-31T08:30:39;99905.41;;;16.92;100.00
3142;BME280;1581;51.568;6.998;2022-12-31T08:33:15;99908.81;;;16.87;100.00
3142;BME280;1581;51.568;6.998;2022-12-31T08:36:00;99919.94;;;16.91;100.00
3142;BME280;1581;51.568;6.998;2022-12-31T08:38:36;99919.19;;;16.95;100.00
3142;BME280;1581;51.568;6.998;2022-12-31T08:41:23;99901.97;;;16.96;100.00
3142;BME280;1581;51.568;6.998;2022-12-31T08:44:04;99916.78;;;16.99;100.00
3142;BME280;1581;51.568;6.998;2022-12-31T08:46:42;99931.31;;;16.98;100.00
3142;BME280;1581;51.568;6.998;2022-12-31T08:49:14;99932.78;;;17.05;100.00
3142;BME280;1581;51.568;6.998;2022-12-31T08:51:43;99911.72;;;17.02;100.00
3142;BME280;1581;51.568;6.998;2022-12-31T08:54:12;99941.72;;;17.11;100.00
3142;BME280;1581;51.568;6.998;2022-12-31T08:56:47;99927.63;;;17.04;100.00
3142;BME280;1581;51.568;6.998;2022-12-31T08:59:34;99939.34;;;17.14;100.00
3142;BME280;1581;51.568;6.998;2022-12-31T09:02:40;99941.84;;;17.21;100.00
3142;BME280;1581;51.568;6.998;2022-12-31T09:05:18;99938.50;;;17.14;100.00
3142;BME280;1581;51.568;6.998;2022-12-31T09:08:01;99945.03;;;17.18;100.00
3142;BME280;1581;51.568;6.998;2022-12-31T09:10:42;99911.84;;;17.12;100.00
3142;BME280;1581;51.568;6.998;2022-12-31T09:13:24;99978.91;;;17.14;100.00
3142;BME280;1581;51.568;6.998;2022-12-31T09:16:05;99969.19;;;17.13;100.00
3142;BME280;1581;51.568;6.998;2022-12-31T09:18:40;99978.09;;;17.13;100.00
3142;BME280;1581;51.568;6.998;2022-12-31T09:21:09;99992.34;;;17.14;100.00
3142;BME280;1581;51.568;6.998;2022-12-31T09:23:39;100004.31;;;17.23;100.00
3142;BME280;1581;51.568;6.998;2022-12-31T09:26:18;99996.50;;;17.21;100.00
3142;BME280;1581;51.568;6.998;2022-12-31T09:28:58;100017.34;;;17.09;100.00
3142;BME280;1581;51.568;6.998;2022-12-31T09:31:34;100004.13;;;17.08;100.00
3142;BME280;1581;51.568;6.998;2022-12-31T09:34:13;100036.13;;;17.04;100.00
3142;BME280;1581;51.568;6.998;2022-12-31T09:36:48;100025.72;;;17.13;100.00
3142;BME280;1581;51.568;6.998;2022-12-31T09:39:26;100026.44;;;17.24;100.00
3142;BME280;1581;51.568;6.998;2022-12-31T09:42:48;100031.09;;;17.29;100.00
3142;BME280;1581;51.568;6.998;2022-12-31T09:49:07;100051.00;;;17.28;100.00
3142;BME280;1581;51.568;6.998;2022-12-31T09:51:43;100062.81;;;17.27;100.00
3142;BME280;1581;51.568;6.998;2022-12-31T09:54:29;100057.28;;;17.17;100.00
3142;BME280;1581;51.568;6.998;2022-12-31T09:57:33;100062.53;;;17.07;100.00
3142;BME280;1581;51.568;6.998;2022-12-31T10:00:11;100057.63;;;17.21;100.00
3142;BME280;1581;51.568;6.998;2022-12-31T10:05:59;100081.03;;;17.20;100.00
3142;BME280;1581;51.568;6.998;2022-12-31T10:09:08;100076.22;;;17.22;100.00
3142;BME280;1581;51.568;6.998;2022-12-31T10:12:10;100062.38;;;17.30;100.00
3142;BME280;1581;51.568;6.998;2022-12-31T10:15:10;100075.91;;;17.19;100.00
3142;BME280;1581;51.568;6.998;2022-12-31T10:17:57;100081.50;;;17.50;100.00
3142;BME280;1581;51.568;6.998;2022-12-31T10:20:47;100081.50;;;17.50;100.00
3142;BME280;1581;51.568;6.998;2022-12-31T10:26:53;100109.28;;;17.34;100.00
3142;BME280;1581;51.568;6.998;2022-12-31T10:29:38;100079.56;;;17.45;100.00
3142;BME280;1581;51.568;6.998;2022-12-31T10:32:18;100082.03;;;17.30;100.00
3142;BME280;1581;51.568;6.998;2022-12-31T10:34:58;100098.41;;;17.45;100.00
3142;BME280;1581;51.568;6.998;2022-12-31T10:37:32;100082.88;;;17.52;100.00
3142;BME280;1581;51.568;6.998;2022-12-31T10:40:18;100092.19;;;17.61;100.00
3142;BME280;1581;51.568;6.998;2022-12-31T10:43:37;100101.50;;;17.75;100.00
3142;BME280;1581;51.568;6.998;2022-12-31T10:47:08;100082.94;;;17.57;100.00
3142;BME280;1581;51.568;6.998;2022-12-31T10:54:07;100090.59;;;17.65;100.00
3142;BME280;1581;51.568;6.998;2022-12-31T11:00:23;100074.69;;;17.64;100.00
3142;BME280;1581;51.568;6.998;2022-12-31T11:10:45;100062.25;;;18.27;100.00
3142;BME280;1581;51.568;6.998;2022-12-31T11:13:53;100058.59;;;18.38;100.00
3142;BME280;1581;51.568;6.998;2022-12-31T11:16:44;100058.75;;;18.26;100.00
3142;BME280;1581;51.568;6.998;2022-12-31T11:19:21;100072.75;;;18.23;100.00
3142;BME280;1581;51.568;6.998;2022-12-31T11:22:12;100062.13;;;18.17;100.00
3142;BME280;1581;51.568;6.998;2022-12-31T11:25:17;100060.91;;;18.56;100.00
3142;BME280;1581;51.568;6.998;2022-12-31T11:28:21;100042.56;;;18.05;100.00
3142;BME280;1581;51.568;6.998;2022-12-31T11:31:14;100077.63;;;18.05;100.00
3142;BME280;1581;51.568;6.998;2022-12-31T11:34:02;100074.22;;;17.93;100.00
3142;BME280;1581;51.568;6.998;2022-12-31T11:36:43;100083.75;;;18.01;100.00
3142;BME280;1581;51.568;6.998;2022-12-31T11:39:38;100097.88;;;17.86;100.00
3142;BME280;1581;51.568;6.998;2022-12-31T11:42:20;100088.41;;;17.84;100.00
3142;BME280;1581;51.568;6.998;2022-12-31T11:44:58;100086.09;;;17.92;100.00
3142;BME280;1581;51.568;6.998;2022-12-31T11:47:51;100090.94;;;17.90;100.00
3142;BME280;1581;51.568;6.998;2022-12-31T11:50:30;100085.53;;;17.90;100.00
3142;BME280;1581;51.568;6.998;2022-12-31T11:53:20;100085.78;;;17.67;100.00
3142;BME280;1581;51.568;6.998;2022-12-31T11:56:00;100096.88;;;17.92;100.00
3142;BME280;1581;51.568;6.998;2022-12-31T11:58:31;100093.50;;;17.80;100.00
3142;BME280;1581;51.568;6.998;2022-12-31T12:01:03;100097.56;;;17.83;100.00
3142;BME280;1581;51.568;6.998;2022-12-31T12:03:35;100097.47;;;17.56;100.00
3142;BME280;1581;51.568;6.998;2022-12-31T12:06:12;100099.59;;;17.54;100.00
3142;BME280;1581;51.568;6.998;2022-12-31T12:08:40;100093.25;;;17.60;100.00
3142;BME280;1581;51.568;6.998;2022-12-31T12:11:17;100090.53;;;17.60;100.00
3142;BME280;1581;51.568;6.998;2022-12-31T12:13:48;100091.69;;;17.48;100.00
3142;BME280;1581;51.568;6.998;2022-12-31T12:16:16;100105.00;;;17.54;100.00
3142;BME280;1581;51.568;6.998;2022-12-31T12:19:02;100089.84;;;17.48;100.00
3142;BME280;1581;51.568;6.998;2022-12-31T12:21:48;100105.00;;;17.54;100.00
3142;BME280;1581;51.568;6.998;2022-12-31T12:24:31;100106.06;;;17.53;100.00
3142;BME280;1581;51.568;6.998;2022-12-31T12:27:27;100098.53;;;17.55;100.00
3142;BME280;1581;51.568;6.998;2022-12-31T12:30:20;100092.09;;;17.56;100.00
3142;BME280;1581;51.568;6.998;2022-12-31T12:33:13;100078.31;;;17.74;100.00
3142;BME280;1581;51.568;6.998;2022-12-31T12:35:52;100093.88;;;17.67;100.00
3142;BME280;1581;51.568;6.998;2022-12-31T12:38:26;100086.44;;;17.36;100.00
3142;BME280;1581;51.568;6.998;2022-12-31T12:40:57;100096.47;;;17.08;100.00
3142;BME280;1581;51.568;6.998;2022-12-31T12:43:28;100103.09;;;17.01;100.00
3142;BME280;1581;51.568;6.998;2022-12-31T12:46:01;100091.28;;;16.85;100.00
3142;BME280;1581;51.568;6.998;2022-12-31T12:48:37;100097.63;;;16.96;100.00
3142;BME280;1581;51.568;6.998;2022-12-31T12:51:18;100103.72;;;16.91;100.00
3142;BME280;1581;51.568;6.998;2022-12-31T12:54:01;100090.13;;;16.81;100.00
3142;BME280;1581;51.568;6.998;2022-12-31T12:56:39;100090.59;;;16.78;100.00
3142;BME280;1581;51.568;6.998;2022-12-31T12:59:55;100081.56;;;16.84;100.00
3142;BME280;1581;51.568;6.998;2022-12-31T13:05:57;100096.50;;;16.92;100.00
3142;BME280;1581;51.568;6.998;2022-12-31T13:08:48;100112.63;;;16.92;100.00
3142;BME280;1581;51.568;6.998;2022-12-31T13:11:34;100105.69;;;16.96;100.00
3142;BME280;1581;51.568;6.998;2022-12-31T13:14:17;100101.78;;;17.03;100.00
3142;BME280;1581;51.568;6.998;2022-12-31T13:16:57;100114.50;;;17.08;100.00
3142;BME280;1581;51.568;6.998;2022-12-31T13:19:35;100110.44;;;17.05;100.00
3142;BME280;1581;51.568;6.998;2022-12-31T13:22:13;100108.78;;;17.21;100.00
3142;BME280;1581;51.568;6.998;2022-12-31T13:24:54;100117.94;;;17.20;100.00
3142;BME280;1581;51.568;6.998;2022-12-31T13:27:29;100096.63;;;17.18;100.00
3142;BME280;1581;51.568;6.998;2022-12-31T13:30:04;100102.66;;;17.25;100.00
3142;BME280;1581;51.568;6.998;2022-12-31T13:32:42;100121.88;;;17.28;100.00
3142;BME280;1581;51.568;6.998;2022-12-31T13:35:24;100099.84;;;17.31;100.00
3142;BME280;1581;51.568;6.998;2022-12-31T13:37:59;100114.38;;;17.30;100.00
3142;BME280;1581;51.568;6.998;2022-12-31T13:40:34;100105.38;;;17.41;100.00
3142;BME280;1581;51.568;6.998;2022-12-31T13:43:17;100107.19;;;17.36;100.00
3142;BME280;1581;51.568;6.998;2022-12-31T13:46:03;100096.63;;;17.34;100.00
3142;BME280;1581;51.568;6.998;2022-12-31T13:48:39;100097.59;;;17.45;100.00
3142;BME280;1581;51.568;6.998;2022-12-31T13:51:15;100126.66;;;17.26;100.00
3142;BME280;1581;51.568;6.998;2022-12-31T13:53:53;100116.13;;;17.09;100.00
3142;BME280;1581;51.568;6.998;2022-12-31T13:56:28;100121.25;;;16.94;100.00
3142;BME280;1581;51.568;6.998;2022-12-31T13:59:04;100114.81;;;16.78;100.00
3142;BME280;1581;51.568;6.998;2022-12-31T14:01:39;100121.81;;;16.63;100.00
3142;BME280;1581;51.568;6.998;2022-12-31T14:04:13;100131.44;;;16.59;100.00
3142;BME280;1581;51.568;6.998;2022-12-31T14:06:46;100116.41;;;16.63;100.00
3142;BME280;1581;51.568;6.998;2022-12-31T14:09:23;100095.25;;;16.66;100.00
3142;BME280;1581;51.568;6.998;2022-12-31T14:12:15;100105.75;;;16.68;100.00
3142;BME280;1581;51.568;6.998;2022-12-31T14:14:54;100088.41;;;16.75;100.00
3142;BME280;1581;51.568;6.998;2022-12-31T14:17:38;100081.06;;;16.71;100.00
3142;BME280;1581;51.568;6.998;2022-12-31T14:20:20;100092.38;;;16.73;100.00
3142;BME280;1581;51.568;6.998;2022-12-31T14:22:58;100082.50;;;16.78;100.00
3142;BME280;1581;51.568;6.998;2022-12-31T14:25:35;100106.34;;;16.86;100.00
3142;BME280;1581;51.568;6.998;2022-12-31T14:28:06;100105.13;;;16.94;100.00
3142;BME280;1581;51.568;6.998;2022-12-31T14:30:42;100110.19;;;17.07;100.00